createdAt,value
2018-04-22T00:00:30.315Z,21.00
2018-04-22T00:02:56.633Z,20.40
2018-04-22T00:05:23.696Z,21.90
2018-04-22T00:07:50.730Z,21.63
2018-04-22T00:10:17.044Z,22.17
2018-04-22T00:12:43.349Z,20.60
2018-04-22T00:15:09.647Z,20.93
2018-04-22T00:17:36.667Z,21.47
2018-04-22T00:20:03.023Z,19.80
2018-04-22T00:22:30.082Z,21.37
2018-04-22T00:24:56.387Z,19.30
2018-04-22T00:27:22.664Z,21.53
2018-04-22T00:29:49.251Z,20.77
2018-04-22T00:32:16.299Z,21.70
2018-04-22T00:34:42.626Z,23.33
2018-04-22T00:37:08.970Z,21.50
2018-04-22T00:39:35.222Z,20.93
2018-04-22T00:42:02.259Z,19.73
2018-04-22T00:44:28.531Z,21.10
2018-04-22T00:46:54.814Z,21.10
2018-04-22T00:49:21.843Z,19.97
2018-04-22T00:51:48.138Z,20.90
2018-04-22T00:54:21.389Z,21.40
2018-04-22T00:56:47.711Z,18.50
2018-04-22T00:59:14.018Z,20.63
2018-04-22T01:01:40.341Z,19.30
2018-04-22T01:04:06.657Z,21.27
2018-04-22T01:06:32.967Z,20.03
2018-04-22T01:08:59.249Z,20.17
2018-04-22T01:11:25.537Z,18.20
2018-04-22T01:13:51.830Z,18.00
2018-04-22T01:16:18.878Z,18.80
2018-04-22T01:18:45.907Z,19.17
2018-04-22T01:21:12.176Z,20.27
2018-04-22T01:23:38.477Z,20.00
2018-04-22T01:26:05.490Z,19.73
2018-04-22T01:28:31.778Z,19.10
2018-04-22T01:30:58.788Z,19.63
2018-04-22T01:33:25.119Z,19.53
2018-04-22T01:35:51.414Z,19.63
2018-04-22T01:38:17.719Z,18.70
2018-04-22T01:40:44.727Z,18.80
2018-04-22T01:43:10.970Z,20.40
2018-04-22T01:45:37.278Z,19.73
2018-04-22T01:48:03.546Z,20.10
2018-04-22T01:50:29.842Z,18.70
2018-04-22T01:52:56.170Z,20.67
2018-04-22T01:55:22.459Z,18.03
2018-04-22T01:57:48.746Z,18.43
2018-04-22T02:00:15.078Z,19.00
2018-04-22T02:02:41.354Z,18.57
2018-04-22T02:05:07.634Z,21.07
2018-04-22T02:07:33.890Z,20.33
2018-04-22T02:10:00.939Z,18.73
2018-04-22T02:12:28.022Z,18.80
2018-04-22T02:14:54.361Z,20.83
2018-04-22T02:17:20.629Z,18.33
2018-04-22T02:19:46.917Z,18.77
2018-04-22T02:22:13.189Z,17.90
2018-04-22T02:24:40.210Z,19.07
2018-04-22T02:27:06.601Z,20.13
2018-04-22T02:29:32.925Z,19.23
2018-04-22T02:31:59.217Z,19.27
2018-04-22T02:34:25.521Z,20.40
2018-04-22T02:36:51.805Z,18.50
2018-04-22T02:39:18.829Z,19.40
2018-04-22T02:41:45.123Z,18.93
2018-04-22T02:44:11.393Z,22.20
2018-04-22T02:46:37.690Z,20.77
2018-04-22T02:49:04.010Z,22.30
2018-04-22T02:51:30.349Z,20.53
2018-04-22T02:53:56.647Z,21.03
2018-04-22T02:56:22.930Z,21.60
2018-04-22T02:58:49.217Z,21.77
2018-04-22T03:01:15.478Z,19.90
2018-04-22T03:03:41.759Z,20.00
2018-04-22T03:06:08.046Z,19.67
2018-04-22T03:08:34.314Z,21.00
2018-04-22T03:11:01.339Z,20.70
2018-04-22T03:13:27.596Z,20.90
2018-04-22T03:15:53.948Z,20.90
2018-04-22T03:18:20.315Z,20.90
2018-04-22T03:20:46.562Z,21.67
2018-04-22T03:23:12.902Z,21.47
2018-04-22T03:25:39.138Z,20.63
2018-04-22T03:28:06.191Z,20.57
2018-04-22T03:30:33.194Z,21.67
2018-04-22T03:32:59.444Z,20.40
2018-04-22T03:35:25.728Z,21.27
2018-04-22T03:37:51.990Z,20.07
2018-04-22T03:40:18.258Z,20.20
2018-04-22T03:42:45.247Z,20.87
2018-04-22T03:45:11.526Z,21.23
2018-04-22T03:47:37.789Z,22.80
2018-04-22T03:50:04.086Z,20.70
2018-04-22T03:52:31.114Z,20.67
2018-04-22T03:54:57.379Z,21.60
2018-04-22T03:57:23.657Z,20.73
2018-04-22T03:59:49.938Z,21.73
2018-04-22T04:02:16.957Z,21.67
2018-04-22T04:04:43.994Z,21.53
2018-04-22T04:07:10.270Z,20.33
2018-04-22T04:09:36.590Z,21.67
2018-04-22T04:12:02.881Z,22.17
2018-04-22T04:14:29.203Z,21.30
2018-04-22T04:16:55.475Z,21.87
2018-04-22T04:22:40.559Z,22.63
2018-04-22T04:28:12.506Z,21.47
2018-04-22T04:30:38.819Z,22.90
2018-04-22T04:33:05.073Z,21.73
2018-04-22T04:35:31.378Z,23.47
2018-04-22T04:37:57.650Z,21.80
2018-04-22T04:40:24.655Z,21.97
2018-04-22T04:42:50.952Z,23.40
2018-04-22T04:45:17.215Z,21.80
2018-04-22T04:47:43.524Z,22.17
2018-04-22T04:50:09.801Z,21.67
2018-04-22T04:52:36.061Z,21.30
2018-04-22T04:55:03.140Z,23.10
2018-04-22T04:57:29.412Z,22.80
2018-04-22T04:59:55.747Z,22.17
2018-04-22T05:02:22.022Z,23.80
2018-04-22T05:04:48.349Z,22.80
2018-04-22T05:07:14.570Z,21.90
2018-04-22T05:09:41.594Z,22.43
2018-04-22T05:12:07.870Z,23.17
2018-04-22T05:14:34.133Z,21.67
2018-04-22T05:17:00.446Z,22.63
2018-04-22T05:19:26.697Z,21.50
2018-04-22T05:21:53.001Z,22.63
2018-04-22T05:24:19.334Z,22.17
2018-04-22T05:26:45.545Z,22.50
2018-04-22T05:29:11.817Z,24.10
2018-04-22T05:31:38.081Z,24.20
2018-04-22T05:34:04.356Z,22.43
2018-04-22T05:36:30.645Z,22.43
2018-04-22T05:38:57.689Z,22.73
2018-04-22T05:41:24.724Z,22.80
2018-04-22T05:43:51.735Z,24.20
2018-04-22T05:46:18.003Z,23.10
2018-04-22T05:48:45.027Z,22.77
2018-04-22T05:51:11.292Z,22.30
2018-04-22T05:53:38.302Z,22.40
2018-04-22T05:56:04.585Z,24.80
2018-04-22T05:58:30.850Z,23.60
2018-04-22T06:00:57.150Z,22.90
2018-04-22T06:03:23.443Z,21.90
2018-04-22T06:05:50.450Z,22.17
2018-04-22T06:08:16.757Z,22.80
2018-04-22T06:10:43.022Z,22.67
2018-04-22T06:13:09.336Z,20.83
2018-04-22T06:15:35.590Z,22.73
2018-04-22T06:18:01.849Z,21.33
2018-04-22T06:20:28.878Z,20.47
2018-04-22T06:22:55.189Z,21.17
2018-04-22T06:25:21.436Z,23.63
2018-04-22T06:27:47.701Z,23.93
2018-04-22T06:30:13.997Z,20.90
2018-04-22T06:32:40.247Z,20.10
2018-04-22T06:35:07.237Z,20.47
2018-04-22T06:37:33.520Z,22.20
2018-04-22T06:40:00.518Z,20.20
2018-04-22T06:42:27.346Z,21.10
2018-04-22T06:44:53.638Z,18.80
2018-04-22T06:47:20.642Z,19.60
2018-04-22T06:49:46.906Z,20.03
2018-04-22T06:52:13.254Z,19.10
2018-04-22T06:54:39.613Z,19.47
2018-04-22T06:57:05.925Z,19.60
2018-04-22T06:59:32.215Z,19.40
2018-04-22T07:01:58.470Z,19.37
2018-04-22T07:04:25.514Z,19.57
2018-04-22T07:06:52.545Z,18.97
2018-04-22T07:09:18.807Z,20.50
2018-04-22T07:11:45.146Z,20.37
2018-04-22T07:14:11.423Z,18.20
2018-04-22T07:16:37.778Z,18.40
2018-04-22T07:19:04.073Z,19.93
2018-04-22T07:21:30.394Z,20.30
2018-04-22T07:23:56.711Z,18.50
2018-04-22T07:26:23.017Z,18.63
2018-04-22T07:28:49.318Z,19.10
2018-04-22T07:31:16.331Z,19.17
2018-04-22T07:33:42.638Z,18.67
2018-04-22T07:36:08.937Z,19.43
2018-04-22T07:38:35.957Z,19.60
2018-04-22T07:41:02.235Z,22.33
2018-04-22T07:43:28.534Z,19.43
2018-04-22T07:45:54.834Z,17.53
2018-04-22T07:48:21.113Z,18.77
2018-04-22T07:50:47.433Z,17.80
2018-04-22T07:53:13.693Z,18.43
2018-04-22T07:55:39.997Z,16.47
2018-04-22T07:58:07.018Z,19.17
2018-04-22T08:00:33.297Z,18.20
2018-04-22T08:02:59.587Z,17.70
2018-04-22T08:05:25.866Z,17.83
2018-04-22T08:07:52.151Z,18.30
2018-04-22T08:10:18.470Z,16.83
2018-04-22T08:12:44.771Z,18.00
2018-04-22T08:15:11.070Z,17.83
2018-04-22T08:17:37.355Z,17.80
2018-04-22T08:20:03.706Z,16.80
2018-04-22T08:22:30.716Z,17.00
2018-04-22T08:24:57.012Z,15.70
2018-04-22T08:27:23.278Z,14.60
2018-04-22T08:29:49.631Z,15.53
2018-04-22T08:32:15.890Z,15.17
2018-04-22T08:34:42.931Z,12.90
2018-04-22T08:37:09.971Z,14.33
2018-04-22T08:39:37.006Z,13.73
2018-04-22T08:42:03.296Z,14.80
2018-04-22T08:44:29.584Z,13.20
2018-04-22T08:46:56.646Z,12.83
2018-04-22T08:49:22.921Z,12.87
2018-04-22T08:51:49.176Z,12.63
2018-04-22T08:54:15.567Z,12.80
2018-04-22T08:56:41.881Z,13.03
2018-04-22T08:59:08.165Z,12.63
2018-04-22T09:01:34.433Z,11.10
2018-04-22T09:04:00.757Z,11.47
2018-04-22T09:06:27.034Z,12.80
2018-04-22T09:08:53.334Z,11.07
2018-04-22T09:11:19.657Z,12.77
2018-04-22T09:13:45.909Z,11.10
2018-04-22T09:16:12.185Z,10.60
2018-04-22T09:18:38.473Z,9.60
2018-04-22T09:21:04.814Z,10.93
2018-04-22T09:23:31.148Z,10.37
2018-04-22T09:25:57.481Z,10.23
2018-04-22T09:28:23.774Z,10.23
2018-04-22T09:30:50.089Z,10.77
2018-04-22T09:33:16.390Z,10.73
2018-04-22T09:35:43.031Z,10.70
2018-04-22T09:38:09.287Z,10.10
2018-04-22T09:40:36.330Z,10.47
2018-04-22T09:43:02.633Z,9.80
2018-04-22T09:45:28.942Z,9.90
2018-04-22T09:47:55.222Z,9.63
2018-04-22T09:50:22.253Z,9.00
2018-04-22T09:52:48.546Z,9.33
2018-04-22T09:55:14.841Z,9.10
2018-04-22T09:57:41.867Z,9.83
2018-04-22T10:00:08.147Z,9.53
2018-04-22T10:02:34.709Z,9.67
2018-04-22T10:05:07.018Z,8.87
2018-04-22T10:07:34.044Z,8.77
2018-04-22T10:10:00.351Z,8.30
2018-04-22T10:12:27.409Z,8.17
2018-04-22T10:14:53.705Z,9.57
2018-04-22T10:17:19.974Z,7.53
2018-04-22T10:19:46.273Z,6.73
2018-04-22T10:22:12.582Z,5.93
2018-04-22T10:24:38.874Z,6.80
2018-04-22T10:27:05.186Z,6.67
2018-04-22T10:29:31.447Z,7.53
2018-04-22T10:31:58.494Z,7.07
2018-04-22T10:34:25.493Z,6.43
2018-04-22T10:36:51.789Z,6.27
2018-04-22T10:39:18.054Z,6.50
2018-04-22T10:41:44.393Z,5.83
2018-04-22T10:44:10.696Z,6.00
2018-04-22T10:46:36.958Z,6.17
2018-04-22T10:49:03.288Z,5.33
2018-04-22T10:51:29.594Z,7.00
2018-04-22T10:53:55.849Z,7.27
2018-04-22T10:56:22.134Z,6.40
2018-04-22T10:58:48.425Z,6.93
2018-04-22T11:01:14.691Z,8.20
2018-04-22T11:03:41.744Z,8.23
2018-04-22T11:06:08.782Z,7.30
2018-04-22T11:08:35.769Z,7.70
2018-04-22T11:11:02.034Z,8.10
2018-04-22T11:13:28.323Z,8.60
2018-04-22T11:15:54.578Z,7.50
2018-04-22T11:18:20.866Z,7.27
2018-04-22T11:20:47.214Z,7.33
2018-04-22T11:23:13.640Z,8.20
2018-04-22T11:25:39.901Z,6.60
2018-04-22T11:28:06.179Z,7.63
2018-04-22T11:30:32.474Z,6.50
2018-04-22T11:32:58.761Z,7.70
2018-04-22T11:35:25.034Z,6.67
2018-04-22T11:37:51.282Z,5.77
2018-04-22T11:40:18.310Z,6.10
2018-04-22T11:42:44.569Z,6.70
2018-04-22T11:45:10.846Z,6.80
2018-04-22T11:47:37.133Z,5.37
2018-04-22T11:50:03.402Z,5.70
2018-04-22T11:52:29.681Z,5.70
2018-04-22T11:54:56.674Z,5.73
2018-04-22T11:57:22.957Z,6.70
2018-04-22T11:59:49.975Z,6.70
2018-04-22T12:02:16.306Z,5.90
2018-04-22T12:04:42.638Z,7.30
2018-04-22T12:07:08.907Z,7.27
2018-04-22T12:09:35.174Z,6.13
2018-04-22T12:12:01.435Z,6.53
2018-04-22T12:14:27.703Z,6.23
2018-04-22T12:16:54.006Z,6.50
2018-04-22T12:19:21.079Z,5.50
2018-04-22T12:21:47.406Z,5.50
2018-04-22T12:24:13.952Z,5.97
2018-04-22T12:26:40.623Z,9.00
2018-04-22T12:29:06.958Z,5.30
2018-04-22T12:31:33.280Z,6.27
2018-04-22T12:33:59.583Z,5.97
2018-04-22T12:36:25.925Z,5.03
2018-04-22T12:38:52.187Z,5.90
2018-04-22T12:41:18.494Z,6.67
2018-04-22T12:43:44.756Z,6.33
2018-04-22T12:46:11.804Z,5.83
2018-04-22T12:48:38.135Z,6.60
2018-04-22T12:51:05.168Z,5.53
2018-04-22T12:53:31.479Z,6.00
2018-04-22T12:55:58.506Z,6.00
2018-04-22T12:58:24.798Z,7.50
2018-04-22T13:00:51.948Z,6.27
2018-04-22T13:03:18.291Z,6.20
2018-04-22T13:05:44.698Z,6.03
2018-04-22T13:08:11.071Z,7.30
2018-04-22T13:10:37.418Z,5.90
2018-04-22T13:13:03.706Z,5.80
2018-04-22T13:15:30.002Z,7.83
2018-04-22T13:17:56.424Z,8.00
2018-04-22T13:20:22.734Z,8.97
2018-04-22T13:22:49.050Z,9.27
2018-04-22T13:25:16.099Z,10.63
2018-04-22T13:27:42.386Z,6.80
2018-04-22T13:30:08.638Z,9.60
2018-04-22T13:32:35.668Z,8.80
2018-04-22T13:35:01.978Z,8.17
2018-04-22T13:37:28.266Z,9.70
2018-04-22T13:39:54.562Z,9.57
2018-04-22T13:42:20.818Z,8.40
2018-04-22T13:44:47.859Z,8.37
2018-04-22T13:47:14.882Z,7.97
2018-04-22T13:49:41.151Z,8.77
2018-04-22T13:52:08.178Z,7.73
2018-04-22T13:54:34.448Z,7.10
2018-04-22T13:57:00.739Z,6.60
2018-04-22T13:59:27.802Z,6.30
2018-04-22T14:01:54.814Z,7.17
2018-04-22T14:04:21.095Z,7.00
2018-04-22T14:06:47.384Z,9.10
2018-04-22T14:09:13.713Z,10.40
2018-04-22T14:11:39.966Z,8.80
2018-04-22T14:14:06.971Z,8.83
2018-04-22T14:16:33.285Z,9.97
2018-04-22T14:18:59.563Z,13.80
2018-04-22T14:21:25.831Z,11.43
2018-04-22T14:23:52.105Z,12.53
2018-04-22T14:26:18.404Z,13.10
2018-04-22T14:28:44.690Z,14.60
2018-04-22T14:31:11.702Z,9.70
2018-04-22T14:33:37.965Z,11.40
2018-04-22T14:36:04.267Z,12.03
2018-04-22T14:38:30.505Z,23.23
2018-04-22T14:40:56.783Z,11.43
2018-04-22T14:43:23.069Z,15.13
2018-04-22T14:46:01.814Z,14.03
2018-04-22T14:48:28.146Z,17.30
2018-04-22T14:50:54.410Z,29.03
2018-04-22T14:53:20.682Z,16.63
2018-04-22T14:55:46.947Z,18.00
2018-04-22T14:58:13.277Z,14.03
2018-04-22T15:00:39.572Z,15.97
2018-04-22T15:03:06.622Z,17.53
2018-04-22T15:05:33.670Z,17.13
2018-04-22T15:07:59.935Z,20.00
2018-04-22T15:10:26.205Z,15.90
2018-04-22T15:12:52.510Z,20.37
2018-04-22T15:15:18.768Z,28.13
2018-04-22T15:17:45.015Z,15.60
2018-04-22T15:20:12.042Z,14.17
2018-04-22T15:22:38.300Z,12.90
2018-04-22T15:25:05.367Z,11.93
2018-04-22T15:27:31.585Z,13.90
2018-04-22T15:29:58.716Z,16.07
2018-04-22T15:32:25.063Z,15.50
2018-04-22T15:34:52.994Z,13.77
2018-04-22T15:37:19.251Z,15.13
2018-04-22T15:39:45.542Z,13.67
2018-04-22T15:42:11.828Z,12.87
2018-04-22T15:44:38.906Z,11.70
2018-04-22T15:47:05.178Z,11.90
2018-04-22T15:49:31.446Z,12.77
2018-04-22T15:51:57.704Z,16.20
2018-04-22T15:54:23.995Z,12.87
2018-04-22T15:56:51.003Z,12.40
2018-04-22T15:59:17.289Z,11.73
2018-04-22T16:01:43.564Z,17.10
2018-04-22T16:04:09.830Z,11.43
2018-04-22T16:06:36.853Z,11.30
2018-04-22T16:09:03.166Z,16.17
2018-04-22T16:11:30.171Z,13.73
2018-04-22T16:13:56.431Z,12.50
2018-04-22T16:16:22.698Z,11.90
2018-04-22T16:18:49.728Z,9.87
2018-04-22T16:21:16.024Z,6.77
2018-04-22T16:23:42.269Z,6.63
2018-04-22T16:26:08.535Z,7.17
2018-04-22T16:28:35.563Z,5.47
2018-04-22T16:31:01.826Z,5.87
2018-04-22T16:33:29.200Z,7.27
2018-04-22T16:35:55.502Z,6.10
2018-04-22T16:38:22.493Z,6.73
2018-04-22T16:40:48.814Z,8.40
2018-04-22T16:43:15.082Z,7.80
2018-04-22T16:45:42.169Z,8.60
2018-04-22T16:48:09.211Z,8.00
2018-04-22T16:50:36.259Z,10.37
2018-04-22T16:53:02.510Z,10.20
2018-04-22T16:55:28.769Z,7.67
2018-04-22T16:57:55.058Z,10.00
2018-04-22T17:00:22.050Z,9.10
2018-04-22T17:02:48.332Z,8.23
2018-04-22T17:05:14.642Z,7.70
2018-04-22T17:07:41.676Z,7.37
2018-04-22T17:10:07.961Z,8.70
2018-04-22T17:12:34.221Z,10.50
2018-04-22T17:15:00.517Z,7.33
2018-04-22T17:17:26.824Z,7.37
2018-04-22T17:19:53.877Z,8.70
2018-04-22T17:22:20.881Z,8.30
2018-04-22T17:24:47.215Z,11.20
2018-04-22T17:27:13.456Z,8.00
2018-04-22T17:29:39.736Z,8.60
2018-04-22T17:32:06.008Z,9.90
2018-04-22T17:34:32.259Z,9.83
2018-04-22T17:36:58.539Z,8.87
2018-04-22T17:39:24.803Z,10.07
2018-04-22T17:41:51.490Z,9.30
2018-04-22T17:44:17.734Z,12.03
2018-04-22T17:46:44.000Z,10.60
2018-04-22T17:49:10.283Z,12.57
2018-04-22T17:51:36.546Z,10.27
2018-04-22T17:54:02.910Z,15.30
2018-04-22T17:56:29.176Z,12.97
2018-04-22T17:58:55.489Z,14.80
2018-04-22T18:01:21.779Z,11.67
2018-04-22T18:03:48.069Z,11.40
2018-04-22T18:06:14.358Z,11.33
2018-04-22T18:08:41.350Z,10.27
2018-04-22T18:11:07.632Z,9.27
2018-04-22T18:13:33.891Z,8.70
2018-04-22T18:16:00.182Z,9.07
2018-04-22T18:18:26.435Z,10.10
2018-04-22T18:20:52.714Z,9.80
2018-04-22T18:23:18.996Z,7.83
2018-04-22T18:25:46.054Z,7.30
2018-04-22T18:28:12.345Z,8.83
2018-04-22T18:30:38.597Z,6.70
2018-04-22T18:33:05.224Z,8.10
2018-04-22T18:35:31.473Z,7.13
2018-04-22T18:37:58.485Z,8.30
2018-04-22T18:40:25.605Z,7.00
2018-04-22T18:42:51.906Z,6.70
2018-04-22T18:45:18.200Z,7.10
2018-04-22T18:47:44.469Z,7.90
2018-04-22T18:50:10.775Z,7.00
2018-04-22T18:52:37.782Z,6.53
2018-04-22T18:55:04.059Z,7.90
2018-04-22T18:57:31.129Z,7.03
2018-04-22T18:59:57.398Z,7.43
2018-04-22T19:02:23.780Z,8.90
2018-04-22T19:04:50.049Z,8.90
2018-04-22T19:07:16.370Z,6.80
2018-04-22T19:09:42.633Z,8.30
2018-04-22T19:12:08.884Z,7.60
2018-04-22T19:14:36.045Z,6.50
2018-04-22T19:17:03.054Z,7.70
2018-04-22T19:19:30.197Z,6.50
2018-04-22T19:21:56.481Z,6.83
2018-04-22T19:24:22.767Z,7.10
2018-04-22T19:26:49.014Z,8.00
2018-04-22T19:29:15.306Z,7.50
2018-04-22T19:31:41.694Z,6.73
2018-04-22T19:34:08.690Z,7.27
2018-04-22T19:36:34.965Z,7.77
2018-04-22T19:39:02.034Z,10.17
2018-04-22T19:41:28.360Z,12.00
2018-04-22T19:43:54.633Z,8.97
2018-04-22T19:46:20.885Z,9.10
2018-04-22T19:48:48.073Z,9.50
2018-04-22T19:51:15.150Z,10.60
2018-04-22T19:53:41.499Z,7.87
2018-04-22T19:56:07.765Z,8.00
2018-04-22T19:58:34.066Z,9.13
2018-04-22T20:01:00.439Z,7.60
2018-04-22T20:03:26.748Z,7.60
2018-04-22T20:05:54.134Z,7.33
2018-04-22T20:08:20.473Z,7.47
2018-04-22T20:10:46.709Z,7.77
2018-04-22T20:13:13.090Z,7.00
2018-04-22T20:15:40.098Z,7.53
2018-04-22T20:18:06.458Z,7.63
2018-04-22T20:20:32.706Z,8.87
2018-04-22T20:22:59.827Z,6.90
2018-04-22T20:25:26.133Z,7.90
2018-04-22T20:27:52.385Z,9.40
2018-04-22T20:30:18.662Z,7.70
2018-04-22T20:32:44.952Z,10.50
2018-04-22T20:35:11.522Z,8.50
2018-04-22T20:37:37.868Z,7.40
2018-04-22T20:40:04.901Z,7.73
2018-04-22T20:42:31.941Z,7.00
2018-04-22T20:44:58.197Z,7.00
2018-04-22T20:47:24.486Z,7.73
2018-04-22T20:49:51.523Z,7.13
2018-04-22T20:52:17.790Z,6.60
2018-04-22T20:54:44.062Z,23.57
2018-04-22T20:57:10.353Z,12.80
2018-04-22T20:59:36.662Z,6.80
2018-04-22T21:02:03.050Z,7.23
2018-04-22T21:04:29.330Z,7.93
2018-04-22T21:06:56.360Z,6.73
2018-04-22T21:09:22.606Z,6.93
2018-04-22T21:11:49.614Z,7.70
2018-04-22T21:14:15.931Z,6.27
2018-04-22T21:16:42.219Z,9.10
2018-04-22T21:19:09.213Z,9.40
2018-04-22T21:21:35.469Z,10.13
2018-04-22T21:24:01.733Z,9.90
2018-04-22T21:26:28.046Z,10.10
2018-04-22T21:28:55.077Z,9.43
2018-04-22T21:31:21.332Z,10.53
2018-04-22T21:33:48.702Z,45.87
2018-04-22T21:36:14.982Z,28.73
2018-04-22T21:38:41.229Z,11.67
2018-04-22T21:41:07.492Z,13.00
2018-04-22T21:43:33.793Z,8.67
2018-04-22T21:46:00.810Z,8.33
2018-04-22T21:48:27.053Z,7.67
2018-04-22T21:50:53.338Z,13.90
2018-04-22T21:53:19.585Z,7.53
2018-04-22T21:55:45.843Z,7.43
2018-04-22T21:58:12.128Z,7.40
2018-04-22T22:00:38.420Z,7.70
2018-04-22T22:03:05.457Z,7.00
2018-04-22T22:05:31.749Z,7.63
2018-04-22T22:07:58.437Z,7.30
2018-04-22T22:10:25.418Z,7.97
2018-04-22T22:12:51.664Z,8.50
2018-04-22T22:15:17.986Z,8.47
2018-04-22T22:17:44.219Z,10.00
2018-04-22T22:20:10.501Z,10.10
2018-04-22T22:22:37.727Z,10.60
2018-04-22T22:25:04.056Z,9.90
2018-04-22T22:27:30.341Z,9.17
2018-04-22T22:29:56.637Z,9.33
2018-04-22T22:32:23.001Z,9.07
2018-04-22T22:34:49.281Z,9.17
2018-04-22T22:37:15.642Z,8.70
2018-04-22T22:39:42.647Z,8.23
2018-04-22T22:42:08.910Z,9.30
2018-04-22T22:44:35.920Z,11.10
2018-04-22T22:47:02.178Z,9.80
2018-04-22T22:49:28.575Z,10.50
2018-04-22T22:51:54.952Z,10.50
2018-04-22T22:54:21.958Z,10.10
2018-04-22T22:56:48.238Z,9.90
2018-04-22T22:59:15.269Z,9.70
2018-04-22T23:01:41.543Z,10.97
2018-04-22T23:04:07.821Z,12.20
2018-04-22T23:06:34.090Z,11.17
2018-04-22T23:09:00.377Z,9.53
2018-04-22T23:11:27.433Z,10.50
2018-04-22T23:13:53.728Z,10.90
2018-04-22T23:16:20.006Z,9.00
2018-04-22T23:18:46.298Z,8.17
2018-04-22T23:21:12.588Z,9.13
2018-04-22T23:23:38.846Z,9.63
2018-04-22T23:26:05.129Z,9.33
2018-04-22T23:28:32.147Z,9.43
2018-04-22T23:30:58.417Z,9.70
2018-04-22T23:33:24.674Z,9.23
2018-04-22T23:35:50.959Z,7.93
2018-04-22T23:38:17.245Z,8.77
2018-04-22T23:40:43.526Z,9.00
2018-04-22T23:43:10.523Z,8.60
2018-04-22T23:45:36.783Z,7.60
2018-04-22T23:48:03.058Z,7.60
2018-04-22T23:50:29.320Z,8.20
2018-04-22T23:52:55.582Z,7.83
2018-04-22T23:55:22.574Z,7.50
2018-04-22T23:57:48.858Z,8.07
